Current Weather

Washington Dulles Intl

Washington, Virginia (KIAD)

Report from: Monday, June 17, 2024 4:52 AM EDT
Current time: Monday, June 17, 2024 6:01 AM EDT

Nearby weather – Weather history – Daily summaries
Weather forecast

Temperature20.0°C (68.0°F)
Dew point13.9°C (57.0°F)
Winds 5 kts (2.6 m/s, 5.8 mph) South-Southeast (160°)
Visibility10 mi. (16.1 km)
Clouds Sky clear
Altimeter30.17 in.Hg (1022 mB)
Relative humidity68 %
Density altitude528 ft. (161 m)
Sea-level pressure102.2 kPa (1022 mB, 30.16 in.Hg)
Remarks Automated weather observing station with precipitation discriminator
Pressure falling more quickly
Flight conditions Visual Meteorological Conditions
Raw dataKIAD 170852Z 16005KT 10SM CLR 20/14 A3017 RMK AO2 SLP215 T02000139 58000
An error has occurred. This application may no longer respond until reloaded. Reload 🗙